Time;durP1;ratioP1;P1;durP2;ratioP2;P2;SDS_P1;SDS_P2;PMS_P1;PMS_P2;Temp;Humidity;BMP_temperature;BMP_pressure;BME280_temperature;BME280_humidity;BME280_pressure;Samples;Min_cycle;Max_cycle;Signal;HPM_P1;HPM_P2
2022/03/03 00:01:53;;;;;;;26.33;13.00;;;4.00;99.90;;;;;;5077907;28;20406;-46
2022/03/03 00:04:21;;;;;;;20.90;13.10;;;4.00;99.70;;;;;;5077752;28;20453;-44
2022/03/03 00:06:48;;;;;;;25.00;11.13;;;4.00;99.20;;;;;;5077688;28;20412;-43
2022/03/03 00:09:16;;;;;;;24.10;11.47;;;4.10;99.50;;;;;;5077813;28;20431;-41
2022/03/03 00:11:45;;;;;;;26.27;13.37;;;4.10;99.90;;;;;;5077644;28;20447;-42
2022/03/03 00:14:12;;;;;;;32.53;14.73;;;4.20;99.90;;;;;;5077657;28;20411;-41
2022/03/03 00:16:40;;;;;;;21.77;13.43;;;4.20;99.90;;;;;;5077469;28;20473;-41
2022/03/03 00:19:10;;;;;;;23.07;12.90;;;4.20;99.90;;;;;;5077487;28;20420;-45
2022/03/03 00:21:36;;;;;;;23.17;12.80;;;4.20;99.90;;;;;;5077660;28;20450;-42
2022/03/03 00:24:03;;;;;;;24.67;13.07;;;4.20;99.90;;;;;;5081276;28;20415;-44
2022/03/03 00:26:30;;;;;;;23.80;11.80;;;4.20;99.90;;;;;;5081229;28;20419;-44
2022/03/03 00:28:57;;;;;;;27.17;14.87;;;4.20;99.90;;;;;;5081041;28;20502;-47
2022/03/03 00:31:24;;;;;;;27.00;12.50;;;4.20;99.90;;;;;;5081060;28;20474;-42
2022/03/03 00:33:55;;;;;;;28.97;16.10;;;4.20;99.90;;;;;;5081171;28;20412;-46
2022/03/03 00:36:21;;;;;;;22.50;13.23;;;4.20;99.90;;;;;;5081121;28;20455;-41
2022/03/03 00:38:48;;;;;;;24.03;14.90;;;4.20;99.90;;;;;;5080955;28;20420;-43
2022/03/03 00:41:18;;;;;;;29.20;14.50;;;4.20;99.90;;;;;;5080848;28;20447;-41
2022/03/03 00:43:45;;;;;;;25.83;14.17;;;4.10;99.90;;;;;;5080892;28;20416;-43
2022/03/03 00:46:18;;;;;;;26.63;13.87;;;4.10;99.90;;;;;;5080877;28;20450;-44
2022/03/03 00:48:47;;;;;;;24.63;12.60;;;4.10;99.90;;;;;;5080943;28;20428;-47
2022/03/03 00:51:21;;;;;;;26.03;13.70;;;4.00;99.90;;;;;;5080870;28;20419;-40
2022/03/03 00:53:49;;;;;;;23.27;14.10;;;4.00;99.90;;;;;;5080708;28;20418;-41
2022/03/03 00:56:21;;;;;;;23.73;13.40;;;4.00;99.90;;;;;;5080670;28;20482;-43
2022/03/03 00:58:51;;;;;;;29.87;14.60;;;4.00;99.90;;;;;;5080637;28;20471;-41
2022/03/03 01:01:21;;;;;;;32.10;13.70;;;3.90;99.90;;;;;;5080240;28;20447;-41
2022/03/03 01:03:48;;;;;;;29.03;14.40;;;3.90;99.90;;;;;;5080399;28;20446;-44
2022/03/03 01:06:16;;;;;;;28.50;16.87;;;3.80;99.90;;;;;;5080416;28;20416;-40
2022/03/03 01:08:46;;;;;;;27.23;14.33;;;3.90;99.90;;;;;;5080310;28;20458;-41
2022/03/03 01:11:12;;;;;;;26.77;13.07;;;3.80;99.90;;;;;;5080315;28;20416;-43
2022/03/03 01:13:39;;;;;;;34.50;15.33;;;3.90;99.90;;;;;;5080595;28;20434;-42
2022/03/03 01:16:10;;;;;;;24.83;14.70;;;3.90;99.90;;;;;;5080269;28;20455;-44
2022/03/03 01:18:36;;;;;;;27.57;13.57;;;3.90;99.90;;;;;;5080276;28;20431;-41
2022/03/03 01:21:04;;;;;;;27.83;16.23;;;3.90;99.90;;;;;;5079993;28;20451;-43
2022/03/03 01:23:32;;;;;;;28.10;16.37;;;3.90;99.90;;;;;;5080155;28;20438;-47
2022/03/03 01:25:59;;;;;;;29.63;15.80;;;3.90;99.90;;;;;;5079999;28;20442;-45
2022/03/03 01:28:29;;;;;;;32.30;15.50;;;3.90;99.90;;;;;;5080000;28;20507;-42
2022/03/03 01:30:57;;;;;;;27.37;13.27;;;3.90;99.90;;;;;;5080066;28;20446;-45
2022/03/03 01:33:24;;;;;;;26.87;14.90;;;3.90;99.90;;;;;;5079302;28;20500;-41
2022/03/03 01:35:52;;;;;;;23.97;12.50;;;4.00;99.90;;;;;;5079513;28;20466;-41
2022/03/03 01:38:19;;;;;;;28.90;14.30;;;3.90;99.90;;;;;;5079811;28;20454;-39
2022/03/03 01:40:50;;;;;;;31.50;16.70;;;3.90;99.90;;;;;;5079990;28;20505;-44
2022/03/03 03:34:38;;;;;;;29.00;14.97;;;3.30;99.90;;;;;;5544562;22;20976;-59
2022/03/03 03:37:04;;;;;;;26.50;15.77;;;3.30;99.90;;;;;;5058332;28;20965;-60
2022/03/03 03:39:34;;;;;;;27.00;16.00;;;3.30;99.90;;;;;;5057663;28;20506;-59
2022/03/03 03:42:00;;;;;;;25.83;15.40;;;3.20;99.90;;;;;;5058009;28;20587;-58
2022/03/03 03:44:27;;;;;;;26.50;16.23;;;3.20;99.90;;;;;;5057833;28;20961;-57
2022/03/03 03:46:55;;;;;;;29.60;15.40;;;3.20;99.90;;;;;;5057777;28;20447;-53
2022/03/03 03:49:23;;;;;;;28.90;13.20;;;3.10;99.90;;;;;;5057864;28;20454;-60
2022/03/03 03:51:51;;;;;;;23.70;13.43;;;3.10;99.90;;;;;;5057842;28;20469;-59
2022/03/03 03:54:18;;;;;;;25.30;16.37;;;3.10;99.90;;;;;;5058149;28;20497;-57
2022/03/03 03:56:45;;;;;;;27.00;14.50;;;3.00;99.90;;;;;;5057877;28;20439;-59
2022/03/03 03:59:11;;;;;;;22.87;14.97;;;3.00;99.90;;;;;;5061650;28;20443;-58
2022/03/03 04:01:38;;;;;;;32.63;16.80;;;3.00;99.90;;;;;;5061263;28;20570;-58
2022/03/03 04:04:05;;;;;;;28.30;13.23;;;3.00;99.90;;;;;;5061536;28;20447;-54
2022/03/03 04:06:32;;;;;;;26.30;13.47;;;3.00;99.90;;;;;;5062026;28;20455;-55
2022/03/03 04:09:00;;;;;;;26.97;16.93;;;2.90;99.90;;;;;;5063161;28;20470;-58
2022/03/03 04:11:29;;;;;;;28.23;15.07;;;2.90;99.90;;;;;;5064709;28;20491;-58
2022/03/03 04:13:56;;;;;;;22.77;13.17;;;2.90;99.90;;;;;;5064688;28;20928;-60
2022/03/03 04:16:23;;;;;;;45.43;17.10;;;2.80;99.90;;;;;;5062869;28;20443;-56
2022/03/03 04:18:52;;;;;;;26.17;12.43;;;2.80;99.90;;;;;;5062709;28;20458;-57
2022/03/03 04:21:18;;;;;;;28.17;13.97;;;2.80;99.90;;;;;;5063201;28;20491;-56
2022/03/03 04:23:45;;;;;;;30.23;14.83;;;2.90;99.90;;;;;;5063693;28;20453;-59
2022/03/03 04:26:14;;;;;;;23.00;13.57;;;2.80;99.90;;;;;;5063133;28;20447;-63
2022/03/03 04:28:40;;;;;;;30.93;14.70;;;2.80;99.90;;;;;;5062639;28;20477;-59
2022/03/03 04:31:07;;;;;;;22.43;13.07;;;2.70;99.90;;;;;;5061893;28;20486;-60
2022/03/03 04:33:37;;;;;;;24.27;12.90;;;2.70;99.90;;;;;;5061385;28;20801;-61
2022/03/03 04:36:04;;;;;;;21.60;12.60;;;2.70;99.90;;;;;;5061012;28;20474;-57
2022/03/03 04:38:31;;;;;;;25.93;14.40;;;2.70;99.90;;;;;;5060807;28;20458;-57
2022/03/03 04:40:58;;;;;;;17.07;11.93;;;2.70;99.90;;;;;;5061451;28;20945;-59
2022/03/03 04:43:26;;;;;;;29.93;12.90;;;2.70;99.90;;;;;;5061957;28;20455;-59
2022/03/03 04:45:53;;;;;;;26.40;13.80;;;2.70;99.90;;;;;;5061789;28;20460;-57
2022/03/03 04:48:29;;;;;;;34.03;16.13;;;2.60;99.90;;;;;;5060944;28;20504;-58
2022/03/03 04:50:56;;;;;;;25.70;15.10;;;2.60;99.90;;;;;;5061804;28;20427;-59
2022/03/03 04:53:23;;;;;;;25.30;14.43;;;2.60;99.90;;;;;;5062091;28;20524;-56
2022/03/03 04:55:49;;;;;;;25.30;14.47;;;2.60;99.90;;;;;;5062407;28;20904;-58
2022/03/03 04:58:16;;;;;;;24.73;14.90;;;2.60;99.90;;;;;;5062245;28;20919;-51
2022/03/03 05:00:47;;;;;;;23.40;13.23;;;2.60;99.90;;;;;;5061332;28;20483;-58
2022/03/03 05:03:14;;;;;;;23.17;13.20;;;2.70;99.90;;;;;;5061207;28;20521;-57
2022/03/03 05:05:40;;;;;;;21.17;11.50;;;2.70;99.90;;;;;;5061425;28;20485;-59
2022/03/03 05:08:07;;;;;;;30.50;11.67;;;2.60;99.90;;;;;;5060315;28;20562;-58
2022/03/03 05:10:34;;;;;;;17.90;10.90;;;2.60;99.90;;;;;;5056615;28;20946;-62
2022/03/03 05:13:01;;;;;;;23.97;11.40;;;2.60;99.90;;;;;;5056491;28;20756;-60
2022/03/03 05:15:28;;;;;;;25.80;11.23;;;2.60;99.90;;;;;;5053919;28;20541;-58
2022/03/03 05:17:58;;;;;;;20.30;10.30;;;2.50;99.90;;;;;;5054241;28;20501;-59
2022/03/03 05:20:25;;;;;;;21.23;12.07;;;2.60;99.90;;;;;;5050586;28;20486;-59
2022/03/03 05:22:51;;;;;;;18.63;10.27;;;2.60;99.90;;;;;;5038478;28;20455;-56
2022/03/03 05:25:19;;;;;;;25.70;13.10;;;2.50;99.90;;;;;;5054258;28;20448;-59
2022/03/03 05:27:45;;;;;;;20.13;11.40;;;2.50;99.90;;;;;;5046868;28;20463;-60
2022/03/03 05:30:13;;;;;;;18.67;12.80;;;2.50;99.90;;;;;;5054273;28;20517;-59
2022/03/03 05:32:40;;;;;;;20.87;9.50;;;2.10;99.90;;;;;;5054758;28;20479;-59
2022/03/03 05:35:08;;;;;;;23.20;12.27;;;2.40;99.90;;;;;;5053683;28;20463;-60
2022/03/03 05:37:35;;;;;;;18.90;11.60;;;2.40;99.90;;;;;;5054189;28;20463;-60
2022/03/03 05:40:03;;;;;;;27.73;12.27;;;2.40;99.90;;;;;;5056130;28;20544;-56
2022/03/03 05:42:30;;;;;;;24.33;12.80;;;2.40;99.90;;;;;;5056400;28;20493;-62
2022/03/03 05:44:57;;;;;;;20.30;12.70;;;2.40;99.90;;;;;;5055767;28;20440;-60
2022/03/03 05:47:28;;;;;;;25.33;12.03;;;2.30;99.90;;;;;;5055346;28;20516;-60
2022/03/03 05:49:58;;;;;;;20.80;13.10;;;2.30;99.90;;;;;;5036156;28;20921;-54
2022/03/03 05:52:27;;;;;;;20.63;11.60;;;2.20;99.90;;;;;;5036042;28;20444;-59
2022/03/03 05:54:54;;;;;;;19.53;11.57;;;2.20;99.90;;;;;;5035756;28;20451;-59
2022/03/03 05:57:26;;;;;;;18.70;10.97;;;2.10;99.90;;;;;;5035719;28;20448;-57
2022/03/03 05:59:53;;;;;;;22.33;12.10;;;2.10;99.90;;;;;;5035316;28;21003;-58
2022/03/03 06:02:20;;;;;;;21.80;12.87;;;2.00;99.90;;;;;;5035605;28;20483;-58
2022/03/03 06:04:49;;;;;;;22.00;13.53;;;2.00;99.90;;;;;;5035588;28;20905;-58
2022/03/03 06:07:24;;;;;;;36.13;14.40;;;2.00;99.90;;;;;;5035455;28;20866;-57
2022/03/03 06:09:57;;;;;;;28.13;13.50;;;2.00;99.90;;;;;;5036087;28;20443;-62
2022/03/03 06:12:30;;;;;;;32.33;12.00;;;2.00;99.90;;;;;;5036641;28;20425;-56
2022/03/03 06:15:02;;;;;;;21.97;11.13;;;2.00;99.90;;;;;;5036260;28;20448;-59
2022/03/03 06:17:30;;;;;;;22.27;13.17;;;2.00;99.90;;;;;;5035605;28;20442;-58
2022/03/03 06:20:00;;;;;;;22.50;12.60;;;2.00;99.90;;;;;;5034751;28;20476;-61
2022/03/03 06:22:27;;;;;;;20.50;11.20;;;2.00;99.90;;;;;;5034914;28;20468;-58
2022/03/03 06:24:55;;;;;;;24.70;12.20;;;2.00;99.90;;;;;;5035206;28;20456;-55
2022/03/03 06:27:22;;;;;;;18.23;11.67;;;2.00;99.90;;;;;;5035056;28;20530;-58
2022/03/03 06:29:49;;;;;;;31.00;14.20;;;2.00;99.90;;;;;;5035087;28;20440;-59
2022/03/03 06:32:15;;;;;;;21.70;12.23;;;2.00;99.90;;;;;;5034815;28;20448;-59
2022/03/03 06:34:42;;;;;;;15.63;10.57;;;2.00;99.90;;;;;;5034827;28;20452;-60
2022/03/03 06:37:09;;;;;;;20.57;12.47;;;2.00;99.90;;;;;;5035118;28;20502;-60
2022/03/03 06:39:35;;;;;;;21.90;11.03;;;2.00;99.90;;;;;;5035865;28;21094;-59
2022/03/03 06:42:04;;;;;;;39.43;13.50;;;2.00;99.90;;;;;;5035426;28;20487;-58
2022/03/03 06:44:31;;;;;;;18.13;11.03;;;2.00;99.90;;;;;;5035066;28;20538;-56
2022/03/03 06:46:58;;;;;;;22.73;12.33;;;1.90;99.90;;;;;;5034960;28;20483;-60
2022/03/03 06:49:24;;;;;;;27.87;12.73;;;1.90;99.90;;;;;;5034887;28;20448;-59
2022/03/03 06:51:55;;;;;;;22.57;12.00;;;1.90;99.90;;;;;;5034547;28;20456;-57
2022/03/03 06:54:23;;;;;;;27.13;12.10;;;1.90;99.90;;;;;;5034773;28;20432;-59
2022/03/03 06:56:52;;;;;;;24.87;14.03;;;1.90;99.90;;;;;;5034729;28;20513;-59
2022/03/03 06:59:22;;;;;;;28.43;12.70;;;1.90;99.90;;;;;;5034686;28;20474;-54
2022/03/03 07:01:50;;;;;;;22.47;11.10;;;1.90;99.90;;;;;;5034676;28;20504;-59
2022/03/03 07:04:18;;;;;;;19.40;10.30;;;1.80;99.90;;;;;;5034509;28;20881;-57
2022/03/03 07:06:45;;;;;;;22.97;14.47;;;1.80;99.90;;;;;;5034934;28;20474;-60
2022/03/03 07:09:13;;;;;;;30.77;15.57;;;1.80;99.90;;;;;;5035747;28;20444;-58
2022/03/03 07:11:42;;;;;;;25.50;14.33;;;1.80;99.90;;;;;;5034649;28;20464;-58
2022/03/03 07:14:09;;;;;;;21.20;12.67;;;1.70;99.90;;;;;;5034569;28;20452;-56
2022/03/03 07:16:42;;;;;;;24.60;11.97;;;1.80;99.90;;;;;;5044297;28;20831;-58
2022/03/03 07:19:26;;;;;;;22.53;13.13;;;1.80;99.90;;;;;;5054530;28;20431;-64
2022/03/03 07:22:03;;;;;;;23.77;12.87;;;1.80;99.90;;;;;;5053989;28;20483;-59
2022/03/03 07:24:33;;;;;;;21.40;10.63;;;1.70;99.90;;;;;;5054637;28;20469;-62
2022/03/03 07:27:01;;;;;;;22.50;13.80;;;1.70;99.90;;;;;;5053706;28;20808;-57
2022/03/03 07:29:32;;;;;;;27.93;14.10;;;1.80;99.90;;;;;;5054089;28;20443;-54
2022/03/03 07:32:09;;;;;;;26.97;15.67;;;1.60;99.90;;;;;;5054589;28;20458;-59
2022/03/03 07:34:37;;;;;;;27.00;12.90;;;1.50;99.90;;;;;;5058126;28;20524;-57
2022/03/03 07:37:07;;;;;;;31.40;15.50;;;1.50;99.90;;;;;;5057650;28;20452;-56
2022/03/03 07:39:41;;;;;;;31.30;14.87;;;1.50;99.90;;;;;;5059501;28;20817;-65
2022/03/03 07:42:12;;;;;;;20.43;12.67;;;1.50;99.90;;;;;;5058888;28;20532;-58
2022/03/03 07:44:40;;;;;;;32.20;13.10;;;1.40;99.90;;;;;;5058112;28;20467;-64
2022/03/03 07:47:09;;;;;;;36.50;17.53;;;1.30;99.90;;;;;;5058623;28;20451;-58
2022/03/03 07:49:37;;;;;;;36.47;17.37;;;1.30;99.90;;;;;;5058549;28;20459;-54
2022/03/03 07:52:05;;;;;;;24.43;14.93;;;1.30;99.90;;;;;;5058700;28;20587;-61
2022/03/03 07:54:32;;;;;;;31.67;15.67;;;1.30;99.90;;;;;;5057650;28;20987;-56
2022/03/03 07:57:05;;;;;;;40.17;16.80;;;1.30;99.90;;;;;;5057894;28;20454;-59
2022/03/03 07:59:35;;;;;;;37.13;16.80;;;1.20;99.90;;;;;;5057667;28;20494;-62
2022/03/03 08:02:03;;;;;;;36.07;17.03;;;1.20;99.90;;;;;;5057666;28;20481;-59
2022/03/03 08:04:33;;;;;;;30.47;14.67;;;1.20;99.90;;;;;;5057938;28;20486;-57
2022/03/03 08:07:11;;;;;;;36.10;17.30;;;1.20;99.90;;;;;;5057697;28;20786;-55
2022/03/03 08:09:41;;;;;;;30.90;14.73;;;1.20;99.90;;;;;;5056762;28;20827;-61
2022/03/03 08:12:08;;;;;;;27.87;13.30;;;1.30;99.90;;;;;;5057045;28;20451;-59
2022/03/03 08:14:36;;;;;;;52.17;18.33;;;1.30;99.90;;;;;;5056963;28;20796;-59
2022/03/03 08:17:04;;;;;;;45.90;17.77;;;1.40;99.90;;;;;;5057778;28;20447;-60
2022/03/03 08:19:35;;;;;;;38.37;15.73;;;1.40;99.90;;;;;;5057265;28;20454;-59
2022/03/03 08:22:02;;;;;;;31.47;17.67;;;1.40;99.90;;;;;;5057598;28;20462;-60
2022/03/03 08:24:29;;;;;;;39.40;17.27;;;1.40;99.90;;;;;;5057848;28;20454;-59
2022/03/03 08:26:56;;;;;;;32.00;15.70;;;1.40;99.90;;;;;;5057336;28;20474;-59
2022/03/03 08:29:24;;;;;;;30.27;15.30;;;1.40;99.90;;;;;;5057352;28;20489;-57
2022/03/03 08:31:55;;;;;;;25.63;15.27;;;1.50;99.90;;;;;;5057277;28;20443;-59
2022/03/03 08:34:34;;;;;;;35.33;16.37;;;1.50;99.90;;;;;;5056961;28;20454;-58
2022/03/03 08:37:06;;;;;;;39.47;14.77;;;1.60;99.90;;;;;;5057088;28;20470;-55
2022/03/03 08:39:38;;;;;;;38.07;14.80;;;1.60;99.90;;;;;;5056987;28;20474;-59
2022/03/03 08:42:09;;;;;;;43.27;15.27;;;1.60;99.90;;;;;;5056972;28;20805;-57
2022/03/03 08:44:38;;;;;;;22.27;11.20;;;1.60;99.90;;;;;;5056407;28;20443;-59
2022/03/03 08:47:06;;;;;;;33.40;17.07;;;1.60;99.90;;;;;;5056781;28;20475;-58
2022/03/03 08:49:39;;;;;;;34.40;14.60;;;1.60;99.90;;;;;;5056527;28;20470;-58
2022/03/03 08:52:09;;;;;;;35.57;16.83;;;1.60;99.90;;;;;;5064081;28;20538;-53
2022/03/03 08:54:37;;;;;;;45.80;16.77;;;1.70;99.90;;;;;;5077317;28;20471;-55
2022/03/03 08:57:04;;;;;;;39.57;14.47;;;1.70;99.90;;;;;;5076911;28;20435;-53
2022/03/03 08:59:31;;;;;;;28.43;13.40;;;1.70;99.90;;;;;;5076769;28;20532;-54
2022/03/03 09:02:01;;;;;;;34.63;13.20;;;1.70;99.90;;;;;;5076849;28;20512;-58
2022/03/03 09:04:28;;;;;;;32.53;13.53;;;1.80;99.90;;;;;;5076358;28;20496;-58
2022/03/03 09:06:54;;;;;;;38.37;16.00;;;1.80;99.90;;;;;;5076163;28;20467;-55
2022/03/03 09:09:22;;;;;;;29.90;13.70;;;1.80;99.90;;;;;;5074876;28;20899;-54
2022/03/03 09:11:49;;;;;;;31.60;12.13;;;1.90;99.90;;;;;;5075994;28;20419;-53
2022/03/03 09:14:18;;;;;;;32.77;13.80;;;1.90;99.90;;;;;;5076529;28;20510;-55
2022/03/03 09:16:45;;;;;;;33.93;13.43;;;1.90;99.90;;;;;;5076313;28;20443;-58
2022/03/03 09:19:12;;;;;;;20.17;9.73;;;2.10;99.90;;;;;;5076385;28;20474;-57
2022/03/03 09:21:40;;;;;;;25.70;11.20;;;1.90;99.90;;;;;;5076506;28;20439;-51
2022/03/03 09:24:08;;;;;;;25.63;13.67;;;1.90;99.90;;;;;;5076347;28;20507;-55
2022/03/03 09:26:36;;;;;;;37.77;14.90;;;1.90;99.90;;;;;;5075639;28;20497;-58
2022/03/03 09:29:03;;;;;;;24.27;11.77;;;2.00;99.90;;;;;;5075805;28;20451;-56
2022/03/03 09:31:30;;;;;;;28.83;13.70;;;2.00;99.90;;;;;;5075945;28;20436;-48
2022/03/03 09:33:59;;;;;;;37.90;13.90;;;2.50;99.90;;;;;;5076435;28;20424;-49
2022/03/03 09:36:25;;;;;;;31.40;13.93;;;2.00;99.90;;;;;;5075739;28;20455;-51
2022/03/03 09:38:52;;;;;;;32.47;12.80;;;2.10;99.90;;;;;;5075161;28;20471;-56
2022/03/03 09:41:22;;;;;;;28.17;13.87;;;2.30;99.90;;;;;;5075815;28;21061;-56
2022/03/03 09:43:52;;;;;;;28.60;12.57;;;2.30;99.90;;;;;;5074974;28;20482;-63
2022/03/03 09:46:23;;;;;;;23.53;10.80;;;2.30;99.90;;;;;;5075900;28;20435;-59
2022/03/03 09:48:50;;;;;;;31.80;11.53;;;2.40;99.90;;;;;;5075691;28;20431;-58
2022/03/03 09:51:22;;;;;;;29.20;11.20;;;2.40;99.90;;;;;;5074908;28;20443;-57
2022/03/03 09:53:51;;;;;;;21.73;12.30;;;2.40;99.90;;;;;;5073196;28;20459;-52
2022/03/03 09:56:18;;;;;;;28.47;13.17;;;2.40;99.90;;;;;;5071509;28;20874;-49
2022/03/03 09:58:45;;;;;;;22.30;11.43;;;2.40;99.90;;;;;;5072129;28;20459;-56
2022/03/03 10:01:13;;;;;;;24.30;11.67;;;2.40;99.90;;;;;;5072780;28;20524;-52
2022/03/03 10:03:41;;;;;;;30.00;12.43;;;2.40;99.90;;;;;;5072878;28;21057;-53
2022/03/03 10:06:12;;;;;;;30.63;11.93;;;2.40;99.90;;;;;;5072771;28;20479;-56
2022/03/03 10:08:39;;;;;;;21.67;11.27;;;2.40;99.90;;;;;;5073251;28;20424;-58
2022/03/03 10:11:07;;;;;;;22.63;11.43;;;2.40;99.90;;;;;;5073065;28;20447;-55
2022/03/03 10:13:46;;;;;;;21.30;10.43;;;2.50;99.90;;;;;;5072461;28;20466;-55
2022/03/03 10:16:20;;;;;;;15.87;5.33;;;2.50;99.90;;;;;;5072236;28;20396;-52
2022/03/03 10:18:53;;;;;;;19.20;10.13;;;2.70;99.90;;;;;;5071724;28;20435;-47
2022/03/03 10:21:20;;;;;;;23.13;9.87;;;2.70;99.90;;;;;;5070969;28;20508;-52
2022/03/03 10:23:48;;;;;;;21.00;8.60;;;2.80;99.90;;;;;;5070208;28;20475;-54
2022/03/03 10:26:15;;;;;;;20.53;8.70;;;2.90;99.90;;;;;;5070541;28;20479;-56
2022/03/03 10:28:49;;;;;;;16.80;8.83;;;2.90;99.90;;;;;;5070035;28;20436;-52
2022/03/03 10:31:20;;;;;;;19.57;8.70;;;3.00;99.90;;;;;;5070527;28;20482;-50
2022/03/03 10:33:49;;;;;;;18.27;7.07;;;3.10;99.90;;;;;;5069937;28;20498;-54
2022/03/03 10:36:17;;;;;;;17.27;9.00;;;3.10;99.90;;;;;;5069976;28;20455;-54
2022/03/03 10:38:50;;;;;;;18.47;8.20;;;3.20;99.90;;;;;;5069924;28;20431;-50
2022/03/03 10:41:32;;;;;;;21.00;9.50;;;3.20;99.90;;;;;;5071082;28;20462;-55
2022/03/03 10:44:00;;;;;;;18.83;9.53;;;3.20;99.90;;;;;;5069757;28;20565;-52
2022/03/03 10:46:28;;;;;;;18.27;8.83;;;3.20;99.90;;;;;;5069006;28;20479;-50
2022/03/03 10:48:55;;;;;;;15.00;6.93;;;3.30;99.90;;;;;;5069872;28;20435;-55
2022/03/03 10:51:24;;;;;;;21.70;7.83;;;3.30;99.90;;;;;;5069696;28;20972;-54
2022/03/03 10:53:51;;;;;;;16.37;8.87;;;3.30;99.90;;;;;;5069499;28;20459;-54
2022/03/03 10:56:19;;;;;;;19.40;7.67;;;3.20;99.90;;;;;;5070944;28;20444;-53
2022/03/03 10:58:52;;;;;;;19.53;7.67;;;3.20;99.90;;;;;;5070683;28;20454;-53
2022/03/03 11:01:21;;;;;;;16.13;7.27;;;3.20;99.90;;;;;;5070079;28;20464;-51
2022/03/03 11:03:56;;;;;;;33.00;7.00;;;3.30;99.90;;;;;;5068819;28;20460;-54
2022/03/03 11:06:25;;;;;;;20.93;6.87;;;3.30;99.90;;;;;;5068580;28;20466;-52
2022/03/03 11:08:53;;;;;;;18.70;6.60;;;3.30;99.90;;;;;;5071242;28;20473;-52
2022/03/03 11:11:21;;;;;;;15.70;7.47;;;3.30;99.90;;;;;;5072016;28;20451;-55
2022/03/03 11:13:49;;;;;;;15.40;8.03;;;3.30;99.90;;;;;;5069794;28;20474;-50
2022/03/03 11:16:18;;;;;;;11.67;6.23;;;3.30;99.90;;;;;;5068736;28;20910;-54
2022/03/03 11:18:45;;;;;;;22.53;6.13;;;3.20;99.90;;;;;;5070158;28;20501;-54
2022/03/03 11:21:14;;;;;;;14.30;7.77;;;3.30;99.90;;;;;;5069701;28;20432;-56
2022/03/03 11:23:42;;;;;;;12.27;5.80;;;3.30;99.90;;;;;;5070461;28;20490;-52
2022/03/03 11:26:18;;;;;;;17.30;6.97;;;3.30;99.90;;;;;;5069834;28;20467;-51
2022/03/03 11:28:57;;;;;;;17.27;6.13;;;3.30;99.90;;;;;;5070586;28;20454;-53
2022/03/03 11:31:26;;;;;;;15.90;7.10;;;3.40;99.90;;;;;;5070111;28;20518;-52
2022/03/03 11:34:26;;;;;;;15.73;5.70;;;3.40;99.90;;;;;;5069052;28;20444;-53
2022/03/03 11:37:03;;;;;;;7.70;4.70;;;3.40;99.90;;;;;;5069759;28;20434;-52
2022/03/03 11:39:43;;;;;;;9.90;5.60;;;3.40;99.90;;;;;;5070785;28;20463;-52
2022/03/03 11:42:22;;;;;;;8.87;5.50;;;3.40;99.90;;;;;;5070501;28;20499;-49
2022/03/03 11:44:50;;;;;;;18.37;7.73;;;3.50;99.90;;;;;;5070243;28;20457;-56
2022/03/03 11:47:19;;;;;;;10.03;5.10;;;3.50;99.90;;;;;;5069996;28;20493;-55
2022/03/03 11:49:59;;;;;;;9.77;4.80;;;3.60;99.90;;;;;;5070440;28;20473;-52
2022/03/03 11:52:27;;;;;;;15.63;6.07;;;3.60;99.90;;;;;;5070459;28;20463;-55
2022/03/03 11:54:56;;;;;;;12.00;5.53;;;3.60;99.90;;;;;;5069002;28;20493;-55
2022/03/03 11:57:27;;;;;;;10.17;5.93;;;3.60;99.90;;;;;;5069424;28;20461;-49
2022/03/03 11:59:59;;;;;;;11.30;5.97;;;3.60;99.90;;;;;;5069329;28;20431;-52
2022/03/03 12:02:30;;;;;;;14.27;6.30;;;3.70;99.90;;;;;;5069162;28;20440;-50
2022/03/03 12:05:34;;;;;;;17.23;7.30;;;3.70;99.90;;;;;;5067986;28;20547;-49
2022/03/03 12:08:05;;;;;;;12.30;7.07;;;3.70;99.90;;;;;;5069807;28;20481;-53
2022/03/03 12:10:33;;;;;;;12.90;5.30;;;3.70;99.90;;;;;;5068360;28;20439;-56
2022/03/03 12:13:28;;;;;;;13.47;5.30;;;3.70;99.90;;;;;;5067122;28;20439;-52
2022/03/03 12:16:14;;;;;;;13.17;5.80;;;3.70;99.90;;;;;;5067170;28;20455;-51
2022/03/03 12:18:42;;;;;;;23.57;6.97;;;3.80;99.90;;;;;;5068654;28;20466;-56
2022/03/03 12:21:29;;;;;;;14.80;6.90;;;3.80;99.90;;;;;;5070393;28;20439;-54
2022/03/03 12:24:33;;;;;;;15.70;5.53;;;3.80;99.90;;;;;;5070259;28;20475;-55
2022/03/03 12:27:15;;;;;;;17.50;7.00;;;3.90;99.90;;;;;;5069734;28;20447;-54
2022/03/03 12:29:51;;;;;;;14.90;6.30;;;3.90;99.90;;;;;;5069975;28;20485;-51
2022/03/03 12:32:35;;;;;;;10.20;4.77;;;3.90;99.90;;;;;;5070460;28;20490;-55
2022/03/03 12:35:04;;;;;;;10.00;5.90;;;3.90;99.90;;;;;;5071939;28;20490;-52
2022/03/03 12:37:32;;;;;;;9.37;4.80;;;3.90;99.90;;;;;;5071369;28;20471;-53
2022/03/03 12:40:02;;;;;;;14.03;6.93;;;3.90;99.90;;;;;;5068881;28;20439;-55
2022/03/03 12:42:33;;;;;;;20.93;5.30;;;3.90;99.90;;;;;;5069023;28;20455;-53
2022/03/03 12:45:01;;;;;;;11.80;5.10;;;3.90;99.90;;;;;;5067938;28;20491;-55
2022/03/03 12:47:32;;;;;;;13.40;5.60;;;3.90;99.90;;;;;;5068939;28;20432;-53
2022/03/03 12:50:03;;;;;;;8.13;4.23;;;3.90;99.90;;;;;;5070699;28;20448;-56
2022/03/03 12:52:30;;;;;;;12.87;6.57;;;3.90;99.90;;;;;;5070478;28;20495;-53
2022/03/03 12:54:57;;;;;;;13.37;6.70;;;3.90;99.90;;;;;;5070473;28;20463;-57
2022/03/03 12:57:33;;;;;;;16.17;6.97;;;3.90;99.90;;;;;;5070576;28;20467;-54
2022/03/03 13:00:01;;;;;;;14.90;6.57;;;3.90;99.90;;;;;;5070981;28;20443;-53
2022/03/03 13:02:28;;;;;;;13.50;6.20;;;3.90;99.90;;;;;;5071520;28;20443;-53
2022/03/03 13:04:55;;;;;;;14.10;6.50;;;3.90;99.90;;;;;;5071914;28;20490;-51
2022/03/03 13:07:22;;;;;;;10.37;4.27;;;3.90;99.90;;;;;;5071743;28;20460;-51
2022/03/03 13:09:56;;;;;;;14.13;6.60;;;3.90;99.90;;;;;;5069123;28;20481;-53
2022/03/03 13:12:23;;;;;;;10.17;5.10;;;3.90;99.90;;;;;;5070414;28;20497;-53
2022/03/03 13:14:58;;;;;;;16.97;7.47;;;4.00;99.90;;;;;;5071004;28;20463;-57
2022/03/03 13:17:25;;;;;;;12.70;5.63;;;4.00;99.90;;;;;;5070013;28;20443;-59
2022/03/03 13:19:52;;;;;;;9.13;5.20;;;4.00;99.90;;;;;;5069915;28;20474;-54
2022/03/03 13:22:19;;;;;;;11.73;5.40;;;3.90;99.90;;;;;;5069352;28;20531;-53
2022/03/03 13:24:46;;;;;;;15.67;5.67;;;4.00;99.90;;;;;;5068773;28;20491;-53
2022/03/03 13:27:13;;;;;;;11.37;5.27;;;3.90;99.90;;;;;;5069712;28;20442;-54
2022/03/03 13:29:40;;;;;;;14.60;6.60;;;3.90;99.90;;;;;;5070581;28;20443;-53
2022/03/03 13:32:17;;;;;;;11.53;5.60;;;4.00;99.90;;;;;;5071862;28;20467;-57
2022/03/03 13:34:46;;;;;;;11.70;6.67;;;4.00;99.90;;;;;;5069934;28;20526;-50
2022/03/03 13:37:17;;;;;;;18.40;8.43;;;4.00;99.90;;;;;;5070489;28;20463;-54
2022/03/03 13:39:44;;;;;;;20.30;7.50;;;4.00;99.90;;;;;;5071010;28;20523;-58
2022/03/03 13:42:14;;;;;;;12.70;6.30;;;4.00;99.90;;;;;;5070694;28;20454;-52
2022/03/03 13:44:57;;;;;;;18.17;7.33;;;4.00;99.90;;;;;;5070690;28;20491;-56
2022/03/03 13:47:26;;;;;;;17.17;6.90;;;4.00;99.90;;;;;;5069799;28;20455;-53
2022/03/03 13:49:54;;;;;;;24.27;6.80;;;4.00;99.90;;;;;;5069418;28;20463;-57
2022/03/03 13:52:30;;;;;;;10.63;5.90;;;4.00;99.90;;;;;;5068313;28;20511;-57
2022/03/03 13:55:01;;;;;;;17.80;6.83;;;4.00;99.90;;;;;;5068962;28;20430;-55
2022/03/03 13:57:33;;;;;;;17.77;7.33;;;4.00;99.90;;;;;;5068868;28;20436;-56
2022/03/03 14:00:01;;;;;;;18.70;7.83;;;4.00;99.90;;;;;;5069980;28;20443;-53
2022/03/03 14:02:29;;;;;;;15.50;7.90;;;4.00;99.90;;;;;;5070114;28;20477;-54
2022/03/03 14:05:00;;;;;;;19.60;8.03;;;4.10;99.90;;;;;;5069022;28;20521;-57
2022/03/03 14:07:28;;;;;;;20.33;8.60;;;4.10;99.90;;;;;;5067817;28;20479;-53
2022/03/03 14:09:59;;;;;;;22.27;8.47;;;4.00;99.90;;;;;;5067955;28;20512;-55
2022/03/03 14:12:26;;;;;;;21.50;9.10;;;4.00;99.90;;;;;;5068195;28;20458;-54
2022/03/03 14:14:53;;;;;;;23.97;8.80;;;4.00;99.90;;;;;;5068492;28;20435;-56
2022/03/03 14:17:20;;;;;;;25.90;8.17;;;4.00;99.90;;;;;;5068391;28;20443;-55
2022/03/03 14:19:48;;;;;;;21.90;7.43;;;4.00;99.90;;;;;;5068344;28;20783;-58
2022/03/03 14:22:18;;;;;;;26.47;9.27;;;4.00;99.90;;;;;;5068663;28;20474;-54
2022/03/03 14:24:47;;;;;;;26.40;9.53;;;4.00;99.90;;;;;;5069011;28;20533;-52
2022/03/03 14:27:14;;;;;;;23.77;9.17;;;4.10;99.90;;;;;;5067833;28;20439;-56
2022/03/03 14:29:43;;;;;;;27.70;10.00;;;4.10;99.90;;;;;;5069135;28;20787;-52
2022/03/03 14:32:10;;;;;;;19.03;8.30;;;4.20;99.90;;;;;;5068341;28;20628;-53
2022/03/03 14:34:37;;;;;;;19.50;8.03;;;4.20;99.90;;;;;;5067307;28;20473;-52
2022/03/03 14:37:06;;;;;;;23.60;9.50;;;4.20;99.90;;;;;;5067276;28;20455;-52
2022/03/03 14:39:32;;;;;;;16.83;9.23;;;4.20;99.90;;;;;;5067667;28;20431;-56
2022/03/03 14:42:00;;;;;;;17.43;7.03;;;4.20;99.90;;;;;;5067397;28;20439;-50
2022/03/03 14:44:27;;;;;;;18.10;8.57;;;4.20;99.90;;;;;;5067979;28;20490;-52